Time;durP1;ratioP1;P1;durP2;ratioP2;P2;SDS_P1;SDS_P2;PMS_P1;PMS_P2;Temp;Humidity;BMP_temperature;BMP_pressure;BME280_temperature;BME280_humidity;BME280_pressure;Samples;Min_cycle;Max_cycle;Signal;HPM_P1;HPM_P2
2021/07/05 00:00:18;;;;;;;1.57;1.20;;;;;;;;;;4960168;28;20697;-76
2021/07/05 00:03:22;;;;;;;4.43;1.60;;;;;;;;;;4969211;28;20191;-76
2021/07/05 00:06:27;;;;;;;3.87;1.50;;;;;;;;;;4976081;28;20539;-76
2021/07/05 00:09:33;;;;;;;2.37;1.43;;;;;;;;;;4975948;28;20685;-75
2021/07/05 00:12:39;;;;;;;4.43;1.80;;;;;;;;;;4957293;28;20195;-75
2021/07/05 00:15:43;;;;;;;5.57;1.50;;;;;;;;;;4968722;28;20523;-76
2021/07/05 00:18:47;;;;;;;4.00;1.40;;;;;;;;;;4967679;28;20555;-76
2021/07/05 00:21:51;;;;;;;2.57;1.70;;;;;;;;;;4956413;28;20196;-75
2021/07/05 00:24:55;;;;;;;2.83;1.50;;;;;;;;;;4956606;29;20551;-76
2021/07/05 00:28:00;;;;;;;5.53;1.57;;;;;;;;;;4956186;29;20694;-76
2021/07/05 00:31:04;;;;;;;5.53;1.60;;;;;;;;;;4957382;28;20195;-76
2021/07/05 00:34:09;;;;;;;1.90;1.53;;;;;;;;;;4963498;28;20191;-75
2021/07/05 00:37:13;;;;;;;2.83;1.67;;;;;;;;;;4957034;29;20179;-76
2021/07/05 00:40:18;;;;;;;4.47;2.00;;;;;;;;;;4962043;28;20187;-76
2021/07/05 00:43:22;;;;;;;5.87;1.93;;;;;;;;;;4975193;28;20191;-76
2021/07/05 00:46:26;;;;;;;3.10;1.93;;;;;;;;;;4975881;28;20206;-76
2021/07/05 00:49:31;;;;;;;4.57;1.83;;;;;;;;;;4970029;28;20239;-76
2021/07/05 00:52:37;;;;;;;2.60;1.60;;;;;;;;;;4975044;28;20191;-76
2021/07/05 00:55:42;;;;;;;4.23;1.53;;;;;;;;;;4956935;29;20655;-76
2021/07/05 00:58:46;;;;;;;5.97;1.80;;;;;;;;;;4955356;29;20589;-76
2021/07/05 01:01:50;;;;;;;4.77;1.43;;;;;;;;;;4955537;29;20183;-76
2021/07/05 01:04:54;;;;;;;2.20;1.53;;;;;;;;;;4955355;29;20203;-76
2021/07/05 01:07:58;;;;;;;3.03;1.47;;;;;;;;;;4972674;28;20234;-76
2021/07/05 01:11:03;;;;;;;4.47;1.77;;;;;;;;;;4945625;28;20195;-76
2021/07/05 01:14:07;;;;;;;2.70;1.43;;;;;;;;;;4955607;29;20187;-75
2021/07/05 01:17:13;;;;;;;2.53;1.70;;;;;;;;;;4933360;29;20203;-76
2021/07/05 01:20:20;;;;;;;3.77;1.63;;;;;;;;;;4956280;28;20203;-76
2021/07/05 01:23:27;;;;;;;3.93;1.50;;;;;;;;;;4975115;28;20198;-76
2021/07/05 01:26:30;;;;;;;2.70;1.63;;;;;;;;;;4958979;28;20202;-76
2021/07/05 01:29:35;;;;;;;1.30;1.20;;;;;;;;;;4975099;28;20223;-75
2021/07/05 01:32:39;;;;;;;3.00;1.40;;;;;;;;;;4974556;28;20213;-76
2021/07/05 01:35:45;;;;;;;1.97;1.53;;;;;;;;;;4960758;28;20200;-76
2021/07/05 01:38:51;;;;;;;4.67;1.10;;;;;;;;;;4955664;29;20567;-76
2021/07/05 01:41:55;;;;;;;8.57;1.70;;;;;;;;;;4955339;28;20184;-76
2021/07/05 01:45:00;;;;;;;1.67;1.13;;;;;;;;;;4954813;28;20211;-76
2021/07/05 01:48:05;;;;;;;3.57;1.23;;;;;;;;;;4969887;28;20226;-76
2021/07/05 01:51:09;;;;;;;3.43;1.03;;;;;;;;;;4954846;29;20184;-76
2021/07/05 01:54:14;;;;;;;4.13;1.70;;;;;;;;;;4956292;29;20187;-76
2021/07/05 01:57:24;;;;;;;1.20;0.90;;;;;;;;;;4963637;28;20195;-76
2021/07/05 02:00:31;;;;;;;1.60;1.30;;;;;;;;;;4962812;28;20543;-76
2021/07/05 02:03:36;;;;;;;4.17;1.20;;;;;;;;;;4955832;29;20188;-75
2021/07/05 02:06:40;;;;;;;1.83;1.40;;;;;;;;;;4968581;28;20215;-75
2021/07/05 02:09:44;;;;;;;4.30;1.10;;;;;;;;;;4974674;28;20186;-76
2021/07/05 02:12:49;;;;;;;2.40;1.10;;;;;;;;;;4973366;28;20519;-75
2021/07/05 02:15:56;;;;;;;3.07;0.90;;;;;;;;;;4973514;28;20195;-75
2021/07/05 02:19:00;;;;;;;2.97;1.40;;;;;;;;;;4969766;28;20230;-75
2021/07/05 02:22:06;;;;;;;3.03;1.17;;;;;;;;;;4974004;28;20658;-76
2021/07/05 02:25:12;;;;;;;2.83;1.03;;;;;;;;;;4978259;28;20207;-75
2021/07/05 02:28:19;;;;;;;1.93;0.90;;;;;;;;;;4960701;28;20223;-76
2021/07/05 02:31:24;;;;;;;2.57;1.07;;;;;;;;;;4955647;29;20184;-76
2021/07/05 02:34:28;;;;;;;4.27;1.00;;;;;;;;;;4954273;29;20203;-75
2021/07/05 02:37:32;;;;;;;6.17;1.20;;;;;;;;;;4966679;28;20183;-76
2021/07/05 02:40:44;;;;;;;7.30;1.00;;;;;;;;;;4955600;29;20187;-75
2021/07/05 02:43:49;;;;;;;5.77;1.10;;;;;;;;;;4962808;28;20202;-76
2021/07/05 02:46:53;;;;;;;0.97;0.83;;;;;;;;;;4971830;28;20202;-75
2021/07/05 02:49:57;;;;;;;2.97;0.90;;;;;;;;;;4954197;29;20183;-76
2021/07/05 02:53:03;;;;;;;2.67;1.00;;;;;;;;;;4954165;29;20642;-76
2021/07/05 02:56:07;;;;;;;3.73;1.07;;;;;;;;;;4964135;28;20646;-76
2021/07/05 02:59:11;;;;;;;2.93;1.30;;;;;;;;;;4954193;29;20231;-76
2021/07/05 03:02:15;;;;;;;2.50;0.90;;;;;;;;;;4955447;29;20630;-76
2021/07/05 03:05:22;;;;;;;5.43;1.07;;;;;;;;;;4965133;28;20215;-76
2021/07/05 03:08:26;;;;;;;3.23;1.00;;;;;;;;;;4967889;28;20227;-76
2021/07/05 03:11:30;;;;;;;8.03;1.10;;;;;;;;;;4966744;28;20203;-75
2021/07/05 03:14:34;;;;;;;3.00;1.23;;;;;;;;;;4943491;29;20208;-76
2021/07/05 03:17:41;;;;;;;1.87;1.10;;;;;;;;;;4955449;28;20219;-75
2021/07/05 03:20:48;;;;;;;6.43;1.27;;;;;;;;;;4954916;29;20207;-76
2021/07/05 03:23:52;;;;;;;6.23;1.40;;;;;;;;;;4944023;28;20203;-76
2021/07/05 03:26:56;;;;;;;7.67;1.37;;;;;;;;;;4959771;28;20202;-76
2021/07/05 03:30:01;;;;;;;2.47;0.90;;;;;;;;;;4958281;29;20191;-76
2021/07/05 03:33:05;;;;;;;2.97;1.20;;;;;;;;;;4957607;28;20195;-76
2021/07/05 03:36:09;;;;;;;4.33;1.20;;;;;;;;;;4972828;28;20198;-76
2021/07/05 03:39:13;;;;;;;1.60;1.07;;;;;;;;;;4987205;28;20219;-75
2021/07/05 03:42:17;;;;;;;5.63;1.00;;;;;;;;;;4958559;28;20191;-76
2021/07/05 03:45:28;;;;;;;3.60;0.90;;;;;;;;;;4946169;29;20175;-75
2021/07/05 03:48:32;;;;;;;1.83;1.17;;;;;;;;;;4956966;29;20220;-75
2021/07/05 03:51:36;;;;;;;2.80;0.93;;;;;;;;;;4970805;28;20190;-75
2021/07/05 03:54:40;;;;;;;4.50;1.00;;;;;;;;;;4969098;28;20206;-75
2021/07/05 03:57:45;;;;;;;1.57;1.20;;;;;;;;;;4957377;29;20556;-75
2021/07/05 04:00:49;;;;;;;1.37;1.00;;;;;;;;;;4957480;29;20199;-75
2021/07/05 04:03:53;;;;;;;2.30;1.30;;;;;;;;;;4967616;28;20206;-75
2021/07/05 04:06:57;;;;;;;1.30;1.10;;;;;;;;;;4976138;28;20222;-75
2021/07/05 04:10:04;;;;;;;5.60;1.20;;;;;;;;;;4975534;28;20218;-75
2021/07/05 04:13:10;;;;;;;2.90;0.90;;;;;;;;;;4975640;28;20535;-75
2021/07/05 04:16:14;;;;;;;2.43;0.90;;;;;;;;;;4975977;28;20203;-75
2021/07/05 04:19:18;;;;;;;4.13;1.03;;;;;;;;;;4976648;28;20227;-76
2021/07/05 04:22:23;;;;;;;1.77;1.10;;;;;;;;;;4960753;28;20191;-75
2021/07/05 04:25:27;;;;;;;2.43;1.00;;;;;;;;;;4976184;28;20182;-75
2021/07/05 04:28:31;;;;;;;3.23;0.90;;;;;;;;;;4976673;28;20563;-75
2021/07/05 04:31:35;;;;;;;1.63;0.90;;;;;;;;;;4961371;28;20186;-75
2021/07/05 04:34:40;;;;;;;2.53;1.00;;;;;;;;;;4974937;28;20191;-76
2021/07/05 04:37:45;;;;;;;7.33;1.03;;;;;;;;;;4967862;28;20215;-76
2021/07/05 04:40:51;;;;;;;3.33;0.90;;;;;;;;;;4960149;28;20202;-76
2021/07/05 04:43:56;;;;;;;3.30;1.10;;;;;;;;;;4957848;28;20192;-76
2021/07/05 04:47:02;;;;;;;1.83;0.93;;;;;;;;;;4955545;29;20573;-76
2021/07/05 04:50:09;;;;;;;4.57;1.00;;;;;;;;;;4941063;29;20203;-75
2021/07/05 04:53:13;;;;;;;2.57;1.10;;;;;;;;;;4956668;29;20203;-75
2021/07/05 04:56:18;;;;;;;1.80;1.00;;;;;;;;;;4957010;29;20183;-75
2021/07/05 04:59:24;;;;;;;3.13;1.23;;;;;;;;;;4970455;28;20230;-75
2021/07/05 05:02:29;;;;;;;1.77;1.20;;;;;;;;;;4966052;28;20207;-75
2021/07/05 05:05:33;;;;;;;7.67;3.33;;;;;;;;;;4949582;29;20191;-76
2021/07/05 05:08:37;;;;;;;2.80;1.50;;;;;;;;;;4972619;28;20570;-74
2021/07/05 05:11:41;;;;;;;3.07;1.13;;;;;;;;;;4955490;29;20188;-75
2021/07/05 05:14:46;;;;;;;4.70;1.10;;;;;;;;;;4963043;28;20198;-75
2021/07/05 05:17:50;;;;;;;3.67;1.13;;;;;;;;;;4972282;28;20226;-74
2021/07/05 05:20:55;;;;;;;1.23;0.90;;;;;;;;;;4974560;28;20183;-75
2021/07/05 05:24:00;;;;;;;2.57;1.27;;;;;;;;;;4945002;28;20187;-75
2021/07/05 05:27:04;;;;;;;2.90;1.23;;;;;;;;;;4943976;29;20686;-74
2021/07/05 05:30:10;;;;;;;1.27;1.07;;;;;;;;;;4956014;29;20547;-75
2021/07/05 05:33:14;;;;;;;3.40;1.57;;;;;;;;;;4969805;28;20191;-75
2021/07/05 05:36:19;;;;;;;4.70;1.00;;;;;;;;;;4974780;28;20198;-75
2021/07/05 05:39:23;;;;;;;4.70;1.20;;;;;;;;;;4974423;28;20685;-75
2021/07/05 05:42:27;;;;;;;1.07;0.97;;;;;;;;;;4957762;28;20199;-75
2021/07/05 05:45:31;;;;;;;1.67;1.20;;;;;;;;;;4963766;28;20539;-75
2021/07/05 05:48:35;;;;;;;1.27;1.00;;;;;;;;;;4974168;28;20214;-75
2021/07/05 05:51:40;;;;;;;3.67;1.10;;;;;;;;;;4973661;28;20198;-75
2021/07/05 05:54:43;;;;;;;2.03;1.10;;;;;;;;;;4973327;28;20681;-75
2021/07/05 05:57:48;;;;;;;2.97;1.00;;;;;;;;;;4973754;28;20218;-75
2021/07/05 06:00:52;;;;;;;1.87;1.10;;;;;;;;;;4966446;28;20202;-75
2021/07/05 06:03:57;;;;;;;4.30;1.20;;;;;;;;;;4960587;28;20539;-75
2021/07/05 06:07:01;;;;;;;3.00;1.03;;;;;;;;;;4959332;28;20560;-74
2021/07/05 06:10:06;;;;;;;1.40;1.00;;;;;;;;;;4968181;28;20210;-73
2021/07/05 06:13:10;;;;;;;5.43;1.00;;;;;;;;;;4955214;29;20187;-74
2021/07/05 06:16:15;;;;;;;1.73;1.00;;;;;;;;;;4954905;28;20179;-74
2021/07/05 06:19:19;;;;;;;2.80;0.87;;;;;;;;;;4974238;28;20218;-74
2021/07/05 06:22:30;;;;;;;2.70;1.10;;;;;;;;;;4957639;28;20191;-74
2021/07/05 06:25:36;;;;;;;2.43;1.00;;;;;;;;;;4954474;28;20195;-74
2021/07/05 06:28:40;;;;;;;2.57;1.07;;;;;;;;;;4955071;28;20219;-74
2021/07/05 06:31:45;;;;;;;1.80;1.10;;;;;;;;;;4961162;28;20207;-75
2021/07/05 06:34:49;;;;;;;2.97;1.10;;;;;;;;;;4954755;29;20227;-75
2021/07/05 06:37:53;;;;;;;1.90;1.00;;;;;;;;;;4954873;29;20701;-74
2021/07/05 06:40:58;;;;;;;5.10;0.93;;;;;;;;;;4967993;28;20194;-74
2021/07/05 06:44:02;;;;;;;3.07;1.40;;;;;;;;;;4990505;23;20232;-71
2021/07/05 06:47:06;;;;;;;2.87;1.20;;;;;;;;;;5013151;28;20206;-71
2021/07/05 06:50:10;;;;;;;1.73;1.30;;;;;;;;;;4975711;28;20522;-71
2021/07/05 06:53:14;;;;;;;3.57;1.17;;;;;;;;;;4973659;28;20661;-71
2021/07/05 06:56:18;;;;;;;2.07;1.20;;;;;;;;;;4985822;28;20194;-71
2021/07/05 06:59:23;;;;;;;4.40;1.17;;;;;;;;;;4977221;28;20562;-71
2021/07/05 07:02:27;;;;;;;4.30;1.00;;;;;;;;;;4977375;28;20626;-71
2021/07/05 07:05:33;;;;;;;2.37;0.90;;;;;;;;;;4978243;28;20186;-71
2021/07/05 07:08:37;;;;;;;2.03;1.20;;;;;;;;;;4966941;28;20209;-71
2021/07/05 07:11:42;;;;;;;0.97;0.90;;;;;;;;;;4977661;28;20206;-71
2021/07/05 07:14:48;;;;;;;2.37;0.90;;;;;;;;;;4976837;28;20198;-71
2021/07/05 07:21:19;;;;;;;1.43;1.00;;;;;;;;;;4999641;28;20531;-71
2021/07/05 07:24:23;;;;;;;2.37;1.00;;;;;;;;;;4984365;28;20523;-71
2021/07/05 07:27:27;;;;;;;3.50;0.90;;;;;;;;;;4977496;28;20206;-71
2021/07/05 07:30:31;;;;;;;3.80;1.10;;;;;;;;;;4977598;28;20205;-71
2021/07/05 07:33:35;;;;;;;1.57;0.80;;;;;;;;;;4977530;28;20198;-71
2021/07/05 07:36:41;;;;;;;2.40;0.80;;;;;;;;;;4977311;28;20179;-71
2021/07/05 07:39:48;;;;;;;1.90;0.83;;;;;;;;;;4991337;28;20194;-71
2021/07/05 07:42:52;;;;;;;1.70;0.70;;;;;;;;;;4992214;28;20203;-75
2021/07/05 07:45:57;;;;;;;1.07;0.90;;;;;;;;;;4988382;28;20206;-75
2021/07/05 07:49:01;;;;;;;4.40;0.87;;;;;;;;;;4977456;28;20214;-75
2021/07/05 07:52:05;;;;;;;1.47;0.80;;;;;;;;;;4976991;28;20187;-75
2021/07/05 07:55:12;;;;;;;2.40;0.90;;;;;;;;;;4988800;28;20194;-75
2021/07/05 07:58:16;;;;;;;1.30;0.70;;;;;;;;;;4990203;28;20230;-75
2021/07/05 08:01:20;;;;;;;0.80;0.80;;;;;;;;;;4992842;28;20657;-74
2021/07/05 08:04:24;;;;;;;4.97;0.90;;;;;;;;;;4994583;28;20197;-74
2021/07/05 08:07:28;;;;;;;3.33;1.00;;;;;;;;;;4996333;28;20664;-75
2021/07/05 08:10:33;;;;;;;2.23;1.00;;;;;;;;;;4984499;28;20190;-75
2021/07/05 08:13:37;;;;;;;3.83;1.00;;;;;;;;;;4980165;28;20198;-74
2021/07/05 08:16:41;;;;;;;1.77;1.07;;;;;;;;;;4990023;28;20195;-75
2021/07/05 08:19:45;;;;;;;1.57;0.70;;;;;;;;;;4994384;28;20199;-74
2021/07/05 08:22:52;;;;;;;1.50;0.70;;;;;;;;;;4992637;28;20194;-74
2021/07/05 08:25:57;;;;;;;1.10;0.90;;;;;;;;;;4976055;28;20181;-74
2021/07/05 08:29:03;;;;;;;4.37;0.73;;;;;;;;;;4992071;28;20221;-74
2021/07/05 08:32:07;;;;;;;1.03;0.67;;;;;;;;;;4995431;28;20558;-75
2021/07/05 08:35:12;;;;;;;2.30;0.60;;;;;;;;;;4994861;28;20542;-75
2021/07/05 08:38:16;;;;;;;2.83;0.90;;;;;;;;;;4990677;28;20223;-75
2021/07/05 08:41:20;;;;;;;2.93;0.70;;;;;;;;;;4990836;28;20551;-75
2021/07/05 08:44:25;;;;;;;4.30;1.00;;;;;;;;;;4983227;28;20220;-74
2021/07/05 08:47:34;;;;;;;3.57;0.60;;;;;;;;;;4995372;28;20227;-74
2021/07/05 08:50:40;;;;;;;0.90;0.80;;;;;;;;;;4993710;28;20185;-74
2021/07/05 08:53:46;;;;;;;1.67;0.70;;;;;;;;;;4981793;28;20204;-75
2021/07/05 08:56:50;;;;;;;1.60;0.83;;;;;;;;;;4983423;28;20642;-75
2021/07/05 08:59:55;;;;;;;0.90;0.68;;;;;;;;;;4995136;28;20185;-75
2021/07/05 09:03:01;;;;;;;3.00;1.00;;;;;;;;;;4986086;28;20195;-75
2021/07/05 09:06:10;;;;;;;1.25;0.70;;;;;;;;;;4990568;28;20196;-74
2021/07/05 09:09:14;;;;;;;1.83;1.08;;;;;;;;;;4994618;28;20223;-74
2021/07/05 09:12:18;;;;;;;1.10;0.70;;;;;;;;;;4982086;28;20194;-75
2021/07/05 09:15:22;;;;;;;1.25;0.70;;;;;;;;;;4992038;28;20204;-75
2021/07/05 09:18:32;;;;;;;2.72;0.70;;;;;;;;;;4993870;28;20216;-75
2021/07/05 09:21:37;;;;;;;1.65;0.98;;;;;;;;;;4985860;28;20203;-75
2021/07/05 09:24:44;;;;;;;2.20;0.60;;;;;;;;;;4988174;28;20209;-75
2021/07/05 09:27:58;;;;;;;1.02;0.80;;;;;;;;;;4978658;28;20240;-75
2021/07/05 09:31:02;;;;;;;1.10;0.70;;;;;;;;;;4989247;28;20209;-75
2021/07/05 09:34:42;;;;;;;0.90;0.70;;;;;;;;;;4983473;28;20194;-75
2021/07/05 09:37:59;;;;;;;1.58;0.80;;;;;;;;;;4976363;28;20224;-75
2021/07/05 09:41:17;;;;;;;2.90;0.80;;;;;;;;;;4983401;28;20635;-75
2021/07/05 09:44:24;;;;;;;2.85;0.65;;;;;;;;;;4994498;28;20218;-75
2021/07/05 09:47:28;;;;;;;2.08;1.00;;;;;;;;;;4994591;28;20221;-75
2021/07/05 09:50:34;;;;;;;2.10;0.77;;;;;;;;;;4966270;28;20298;-75
2021/07/05 09:53:44;;;;;;;2.13;0.60;;;;;;;;;;4974989;28;20179;-75
2021/07/05 09:56:53;;;;;;;1.60;0.70;;;;;;;;;;4977383;28;20200;-75
2021/07/05 10:00:07;;;;;;;1.73;0.85;;;;;;;;;;4987192;28;20656;-75
2021/07/05 10:03:17;;;;;;;1.83;0.57;;;;;;;;;;4992036;28;20201;-75
2021/07/05 10:06:21;;;;;;;0.75;0.65;;;;;;;;;;4981182;28;20199;-75
2021/07/05 10:09:36;;;;;;;3.08;0.60;;;;;;;;;;4980854;28;20224;-74
2021/07/05 10:12:52;;;;;;;2.55;0.88;;;;;;;;;;4975493;28;20659;-75
2021/07/05 10:16:06;;;;;;;2.50;0.70;;;;;;;;;;4993357;28;20213;-74
2021/07/05 10:19:12;;;;;;;1.40;0.80;;;;;;;;;;4983966;28;20225;-74
2021/07/05 10:22:16;;;;;;;1.95;1.00;;;;;;;;;;4980957;28;20187;-74
2021/07/05 10:25:21;;;;;;;2.40;0.63;;;;;;;;;;4993565;28;20187;-74
2021/07/05 10:28:25;;;;;;;0.63;0.63;;;;;;;;;;4993677;28;20225;-75
2021/07/05 10:31:30;;;;;;;2.25;0.60;;;;;;;;;;4993855;28;20211;-74
2021/07/05 10:34:40;;;;;;;3.25;0.80;;;;;;;;;;4977453;28;20626;-74
2021/07/05 10:37:58;;;;;;;1.25;0.80;;;;;;;;;;4986000;28;20219;-75
2021/07/05 10:41:13;;;;;;;1.08;0.75;;;;;;;;;;4995264;28;20194;-74
2021/07/05 10:44:20;;;;;;;3.83;0.80;;;;;;;;;;4986855;28;20669;-74
2021/07/05 10:47:41;;;;;;;3.10;1.00;;;;;;;;;;4985456;28;20190;-74
2021/07/05 10:50:51;;;;;;;1.23;0.80;;;;;;;;;;4997602;28;20189;-75
2021/07/05 10:53:56;;;;;;;2.43;0.77;;;;;;;;;;4997464;28;20196;-74
2021/07/05 10:57:00;;;;;;;10.17;1.10;;;;;;;;;;4990022;28;20210;-72
2021/07/05 11:00:19;;;;;;;6.70;1.17;;;;;;;;;;4977339;28;20199;-72
2021/07/05 11:03:35;;;;;;;4.90;1.30;;;;;;;;;;4991451;28;20207;-73
2021/07/05 11:06:41;;;;;;;5.33;1.20;;;;;;;;;;4974370;28;20199;-73
2021/07/05 11:09:57;;;;;;;2.50;1.30;;;;;;;;;;4977405;28;20281;-73
2021/07/05 11:13:04;;;;;;;2.67;1.10;;;;;;;;;;4978763;28;20179;-73
2021/07/05 11:16:09;;;;;;;3.67;1.33;;;;;;;;;;4978247;28;20562;-72
2021/07/05 11:19:29;;;;;;;3.03;1.37;;;;;;;;;;4977626;28;20215;-73
2021/07/05 11:22:35;;;;;;;1.10;1.00;;;;;;;;;;4976660;28;20642;-73
2021/07/05 11:25:39;;;;;;;0.80;0.80;;;;;;;;;;4982281;28;20665;-73
2021/07/05 11:28:43;;;;;;;2.93;1.10;;;;;;;;;;4990852;28;20237;-73
2021/07/05 11:32:00;;;;;;;1.57;1.00;;;;;;;;;;4992820;28;20535;-73
2021/07/05 11:35:32;;;;;;;2.07;1.03;;;;;;;;;;4991785;28;20271;-73
2021/07/05 11:38:39;;;;;;;1.00;0.87;;;;;;;;;;4994616;28;20223;-73
2021/07/05 11:41:46;;;;;;;1.10;1.00;;;;;;;;;;4979308;28;20197;-73
2021/07/05 11:44:55;;;;;;;2.10;0.80;;;;;;;;;;4995325;28;20202;-73
2021/07/05 11:47:59;;;;;;;4.50;0.80;;;;;;;;;;4993777;28;20222;-74
2021/07/05 11:51:14;;;;;;;0.93;0.83;;;;;;;;;;4992713;28;20535;-74
2021/07/05 11:54:22;;;;;;;2.30;1.20;;;;;;;;;;4979010;28;20545;-73
2021/07/05 11:57:26;;;;;;;1.90;0.83;;;;;;;;;;4983947;28;20206;-73
2021/07/05 12:00:32;;;;;;;0.80;0.77;;;;;;;;;;4981718;28;20198;-73
2021/07/05 12:03:52;;;;;;;1.17;0.90;;;;;;;;;;4994058;28;20541;-73
2021/07/05 12:06:57;;;;;;;1.57;0.90;;;;;;;;;;4995423;28;20182;-73
2021/07/05 12:10:02;;;;;;;2.30;0.70;;;;;;;;;;4975727;28;20648;-73
2021/07/05 12:13:23;;;;;;;1.57;0.90;;;;;;;;;;4989360;28;20193;-73
2021/07/05 12:16:27;;;;;;;1.40;1.00;;;;;;;;;;4995501;28;20194;-73
2021/07/05 12:19:33;;;;;;;2.40;1.00;;;;;;;;;;4981369;28;20219;-73
2021/07/05 12:22:37;;;;;;;1.80;0.90;;;;;;;;;;4995508;28;20191;-73
2021/07/05 12:25:42;;;;;;;1.43;0.70;;;;;;;;;;4994906;28;20199;-73
2021/07/05 12:29:11;;;;;;;2.40;0.80;;;;;;;;;;4988721;28;20240;-73
2021/07/05 12:32:24;;;;;;;1.20;0.87;;;;;;;;;;4994281;28;20187;-73
2021/07/05 12:35:28;;;;;;;1.10;0.80;;;;;;;;;;4993703;28;20198;-73
2021/07/05 12:38:35;;;;;;;0.93;0.80;;;;;;;;;;4982539;28;20221;-73
2021/07/05 12:41:42;;;;;;;3.40;0.60;;;;;;;;;;4985056;28;20200;-75
2021/07/05 12:44:46;;;;;;;1.03;0.70;;;;;;;;;;4976227;28;20913;-75
2021/07/05 12:48:16;;;;;;;0.90;0.70;;;;;;;;;;4989707;28;20228;-74
2021/07/05 12:51:20;;;;;;;2.57;0.87;;;;;;;;;;4987601;28;20186;-75
2021/07/05 12:54:24;;;;;;;0.63;0.63;;;;;;;;;;4994800;28;20200;-73
2021/07/05 12:57:28;;;;;;;2.03;0.70;;;;;;;;;;4994077;28;20179;-73
2021/07/05 13:00:34;;;;;;;7.63;1.00;;;;;;;;;;4989464;28;20187;-73
2021/07/05 13:03:40;;;;;;;0.73;0.73;;;;;;;;;;4982986;28;20206;-73
2021/07/05 13:07:02;;;;;;;1.23;0.70;;;;;;;;;;4981002;28;20195;-73
2021/07/05 13:10:08;;;;;;;0.57;0.50;;;;;;;;;;4974717;28;20220;-73
2021/07/05 13:13:14;;;;;;;1.23;0.73;;;;;;;;;;4989454;28;20282;-73
2021/07/05 13:16:25;;;;;;;1.80;1.53;;;;;;;;;;4984410;28;20200;-74
2021/07/05 13:19:29;;;;;;;3.23;0.90;;;;;;;;;;4991899;28;20214;-73
2021/07/05 13:22:33;;;;;;;2.57;0.67;;;;;;;;;;4977410;28;20186;-73
2021/07/05 13:25:48;;;;;;;4.10;0.80;;;;;;;;;;4994576;28;20203;-73
2021/07/05 13:28:52;;;;;;;2.43;0.70;;;;;;;;;;4989109;28;20229;-73
2021/07/05 13:31:58;;;;;;;1.27;0.60;;;;;;;;;;4989110;28;20203;-73
2021/07/05 13:35:09;;;;;;;1.00;0.80;;;;;;;;;;4981717;28;20207;-73
2021/07/05 13:38:18;;;;;;;3.70;0.63;;;;;;;;;;4989258;28;20219;-72
2021/07/05 13:41:25;;;;;;;2.97;0.50;;;;;;;;;;5014083;22;20225;-76
2021/07/05 13:44:30;;;;;;;2.00;0.60;;;;;;;;;;5010075;28;20194;-77
2021/07/05 13:47:47;;;;;;;1.17;0.60;;;;;;;;;;5005125;28;20194;-77
2021/07/05 13:50:53;;;;;;;0.50;0.50;;;;;;;;;;5008209;28;20199;-76
2021/07/05 13:53:57;;;;;;;2.63;0.60;;;;;;;;;;5013103;28;20201;-76
2021/07/05 13:57:18;;;;;;;3.70;0.60;;;;;;;;;;5013337;28;20185;-76
2021/07/05 14:00:23;;;;;;;1.37;0.80;;;;;;;;;;4993446;28;20175;-76
2021/07/05 14:03:29;;;;;;;3.27;0.70;;;;;;;;;;4993593;28;20190;-76
2021/07/05 14:06:33;;;;;;;0.97;0.67;;;;;;;;;;4994548;28;20194;-77
2021/07/05 14:09:37;;;;;;;1.90;0.80;;;;;;;;;;4993983;28;20230;-77
2021/07/05 14:12:42;;;;;;;1.20;0.50;;;;;;;;;;4989389;28;20195;-77
2021/07/05 14:15:47;;;;;;;1.90;1.10;;;;;;;;;;4997973;28;20185;-77
2021/07/05 14:18:51;;;;;;;2.10;0.60;;;;;;;;;;5014204;28;20214;-77
2021/07/05 14:21:55;;;;;;;1.90;0.70;;;;;;;;;;5013656;28;20194;-78
2021/07/05 14:25:00;;;;;;;1.00;0.60;;;;;;;;;;5013613;28;20185;-77
2021/07/05 14:28:05;;;;;;;2.40;0.70;;;;;;;;;;5001948;28;20230;-76
2021/07/05 14:31:09;;;;;;;0.40;0.40;;;;;;;;;;5013793;28;20644;-76
2021/07/05 14:34:13;;;;;;;1.77;0.50;;;;;;;;;;5014021;28;20178;-78
2021/07/05 14:37:19;;;;;;;1.00;0.60;;;;;;;;;;5012742;28;20177;-77
2021/07/05 14:40:24;;;;;;;1.50;0.70;;;;;;;;;;5005892;28;20192;-75
2021/07/05 14:43:28;;;;;;;1.90;0.60;;;;;;;;;;5010617;28;20535;-75
2021/07/05 14:46:33;;;;;;;4.77;0.60;;;;;;;;;;5001624;28;20198;-76
2021/07/05 14:49:38;;;;;;;1.30;0.67;;;;;;;;;;4992843;28;20238;-77
2021/07/05 14:52:43;;;;;;;1.27;0.60;;;;;;;;;;4993166;28;20191;-77
2021/07/05 14:55:47;;;;;;;0.60;0.50;;;;;;;;;;5002207;28;20529;-77
2021/07/05 14:58:51;;;;;;;3.13;0.50;;;;;;;;;;4997668;28;20223;-76
2021/07/05 15:01:56;;;;;;;2.17;0.83;;;;;;;;;;4998774;28;20194;-75
2021/07/05 15:05:02;;;;;;;0.83;0.63;;;;;;;;;;5012004;28;20663;-75
2021/07/05 15:08:06;;;;;;;1.50;0.50;;;;;;;;;;5013418;28;20216;-76
2021/07/05 15:11:10;;;;;;;0.90;0.77;;;;;;;;;;4994115;28;20524;-76
2021/07/05 15:14:14;;;;;;;0.67;0.50;;;;;;;;;;4981969;28;20210;-76
2021/07/05 15:17:19;;;;;;;1.27;0.57;;;;;;;;;;4982611;28;20198;-76
2021/07/05 15:20:25;;;;;;;1.60;0.60;;;;;;;;;;5011669;28;20191;-77
2021/07/05 15:23:29;;;;;;;4.73;0.60;;;;;;;;;;5016614;28;20203;-76
2021/07/05 15:26:33;;;;;;;1.03;0.57;;;;;;;;;;5003222;28;20197;-76
2021/07/05 15:29:37;;;;;;;3.40;0.57;;;;;;;;;;5006335;28;20222;-77
2021/07/05 15:32:41;;;;;;;1.30;0.60;;;;;;;;;;4986165;28;20204;-76
2021/07/05 15:35:46;;;;;;;3.90;1.07;;;;;;;;;;4996569;28;20203;-76
2021/07/05 15:38:51;;;;;;;1.10;0.70;;;;;;;;;;4996804;28;20228;-76
2021/07/05 15:41:56;;;;;;;0.73;0.63;;;;;;;;;;4996973;28;20670;-76
2021/07/05 15:45:00;;;;;;;1.50;0.57;;;;;;;;;;4998296;28;20204;-77
2021/07/05 15:48:05;;;;;;;0.90;0.70;;;;;;;;;;5013175;28;20233;-77
2021/07/05 15:51:09;;;;;;;1.73;0.50;;;;;;;;;;5016205;28;20199;-77
2021/07/05 15:54:14;;;;;;;1.43;0.50;;;;;;;;;;5016019;28;20205;-78
2021/07/05 15:57:18;;;;;;;0.97;0.70;;;;;;;;;;5015549;28;20202;-76
2021/07/05 16:00:22;;;;;;;0.90;0.67;;;;;;;;;;5016608;28;20201;-77
2021/07/05 16:03:29;;;;;;;1.60;0.53;;;;;;;;;;5004218;28;20185;-77
2021/07/05 16:06:34;;;;;;;1.70;0.70;;;;;;;;;;5004133;28;20181;-76
2021/07/05 16:09:38;;;;;;;3.83;0.60;;;;;;;;;;5015590;28;20225;-77
2021/07/05 16:12:42;;;;;;;4.37;0.50;;;;;;;;;;5016069;28;20189;-77
2021/07/05 16:15:48;;;;;;;1.23;0.70;;;;;;;;;;5015136;28;20209;-76
2021/07/05 16:18:52;;;;;;;0.60;0.50;;;;;;;;;;5003791;28;20217;-76
2021/07/05 16:21:56;;;;;;;1.40;0.50;;;;;;;;;;5015130;28;20185;-77
2021/07/05 16:25:00;;;;;;;1.80;0.80;;;;;;;;;;5004862;28;20186;-77
2021/07/05 16:28:06;;;;;;;3.37;0.70;;;;;;;;;;5017474;28;20217;-78
2021/07/05 16:31:10;;;;;;;1.27;0.87;;;;;;;;;;5015744;28;20217;-77
2021/07/05 16:34:14;;;;;;;1.13;0.67;;;;;;;;;;5017306;28;20541;-77
2021/07/05 16:37:19;;;;;;;2.63;0.67;;;;;;;;;;5016989;28;20632;-77
2021/07/05 16:40:25;;;;;;;2.33;0.50;;;;;;;;;;5005526;28;20178;-77
2021/07/05 16:43:29;;;;;;;3.47;0.60;;;;;;;;;;5014750;28;20177;-77
2021/07/05 16:46:33;;;;;;;1.20;0.77;;;;;;;;;;5016251;28;20186;-78
2021/07/05 16:49:38;;;;;;;1.70;0.70;;;;;;;;;;5005844;28;20225;-78
2021/07/05 16:52:43;;;;;;;2.07;0.60;;;;;;;;;;5015388;28;20186;-77
2021/07/05 16:55:52;;;;;;;1.07;0.73;;;;;;;;;;4992103;28;20181;-77
2021/07/05 16:58:56;;;;;;;0.80;0.63;;;;;;;;;;5017029;28;20225;-77
2021/07/05 17:02:09;;;;;;;1.50;0.70;;;;;;;;;;5017757;28;20177;-77
2021/07/05 17:05:17;;;;;;;5.67;0.97;;;;;;;;;;5000047;28;20202;-78
2021/07/05 17:08:21;;;;;;;2.00;0.70;;;;;;;;;;5015025;28;20688;-76
2021/07/05 17:11:26;;;;;;;1.17;0.60;;;;;;;;;;4996567;28;20218;-78
2021/07/05 17:14:31;;;;;;;3.47;0.93;;;;;;;;;;4996704;28;20190;-77
2021/07/05 17:17:35;;;;;;;1.03;0.70;;;;;;;;;;5004094;28;20530;-78
2021/07/05 17:20:39;;;;;;;4.23;0.83;;;;;;;;;;4996002;28;20178;-77
2021/07/05 17:23:43;;;;;;;1.93;0.77;;;;;;;;;;4996935;28;20186;-78
2021/07/05 17:26:47;;;;;;;1.07;0.77;;;;;;;;;;4997212;28;20190;-78
2021/07/05 17:29:51;;;;;;;4.83;1.03;;;;;;;;;;4986243;28;20236;-78
2021/07/05 17:32:56;;;;;;;2.40;0.77;;;;;;;;;;4994427;28;20189;-79
2021/07/05 17:35:59;;;;;;;5.00;0.70;;;;;;;;;;5016641;28;20181;-78
2021/07/05 17:39:05;;;;;;;0.73;0.70;;;;;;;;;;4997577;28;20222;-78
2021/07/05 17:42:09;;;;;;;0.90;0.70;;;;;;;;;;5004347;28;20209;-77
2021/07/05 17:45:14;;;;;;;3.67;1.00;;;;;;;;;;4992065;28;20197;-77
2021/07/05 17:48:19;;;;;;;2.40;0.80;;;;;;;;;;5015531;28;20221;-77
2021/07/05 17:51:23;;;;;;;4.00;0.80;;;;;;;;;;5000749;28;20234;-76
2021/07/05 17:54:27;;;;;;;4.23;0.90;;;;;;;;;;4998468;28;20201;-78
2021/07/05 17:57:32;;;;;;;3.30;0.63;;;;;;;;;;5011437;28;20205;-76
2021/07/05 18:00:36;;;;;;;1.43;0.80;;;;;;;;;;4990619;28;20190;-77
2021/07/05 18:03:40;;;;;;;1.13;0.60;;;;;;;;;;4992069;28;20189;-78
2021/07/05 18:06:44;;;;;;;1.20;0.77;;;;;;;;;;4991102;28;20178;-77
2021/07/05 18:09:51;;;;;;;4.00;0.83;;;;;;;;;;4991163;28;20214;-76
2021/07/05 18:12:56;;;;;;;0.90;0.70;;;;;;;;;;4992792;28;20186;-77
2021/07/05 18:16:00;;;;;;;1.03;0.93;;;;;;;;;;4998045;28;20197;-79
2021/07/05 18:19:08;;;;;;;2.93;1.07;;;;;;;;;;4995082;28;20229;-78
2021/07/05 18:22:12;;;;;;;2.90;1.10;;;;;;;;;;4998066;28;20182;-79
2021/07/05 18:25:17;;;;;;;2.20;1.10;;;;;;;;;;5012658;28;20189;-76
2021/07/05 18:28:21;;;;;;;2.23;1.00;;;;;;;;;;4999260;28;20228;-78
2021/07/05 18:31:26;;;;;;;1.13;0.93;;;;;;;;;;5010701;28;20216;-76
2021/07/05 18:34:30;;;;;;;1.17;1.03;;;;;;;;;;5010835;28;20189;-76
2021/07/05 18:37:35;;;;;;;6.07;1.23;;;;;;;;;;5003387;28;20657;-77